createdAt,value
2023-02-22T00:02:29.535Z,73.10
2023-02-22T00:05:02.084Z,73.00
2023-02-22T00:07:31.934Z,72.56
2023-02-22T00:10:01.829Z,72.59
2023-02-22T00:12:31.740Z,72.92
2023-02-22T00:15:02.665Z,72.50
2023-02-22T00:17:34.655Z,73.42
2023-02-22T00:20:10.542Z,74.11
2023-02-22T00:22:40.386Z,73.94
2023-02-22T00:25:11.370Z,74.08
2023-02-22T00:27:41.246Z,73.99
2023-02-22T00:30:19.181Z,73.66
2023-02-22T00:32:51.239Z,74.92
2023-02-22T00:35:26.496Z,75.04
2023-02-22T00:37:59.834Z,73.92
2023-02-22T00:40:33.247Z,74.68
2023-02-22T00:43:06.113Z,73.36
2023-02-22T00:45:38.374Z,73.39
2023-02-22T00:48:10.209Z,73.35
2023-02-22T00:50:43.143Z,72.73
2023-02-22T00:53:14.688Z,73.19
2023-02-22T00:55:44.798Z,72.94
2023-02-22T00:58:14.649Z,72.91
2023-02-22T01:00:45.944Z,73.68
2023-02-22T01:03:22.764Z,73.84
2023-02-22T01:05:55.492Z,73.32
2023-02-22T01:08:25.641Z,73.35
2023-02-22T01:10:56.535Z,73.51
2023-02-22T01:13:27.412Z,73.64
2023-02-22T01:15:57.348Z,73.92
2023-02-22T01:18:27.422Z,73.55
2023-02-22T01:21:01.412Z,73.84
2023-02-22T01:23:31.780Z,73.67
2023-02-22T01:26:02.934Z,73.72
2023-02-22T01:28:33.018Z,73.93
2023-02-22T01:31:05.002Z,73.90
2023-02-22T01:33:35.504Z,74.46
2023-02-22T01:36:11.463Z,74.08
2023-02-22T01:38:41.529Z,73.89
2023-02-22T01:41:11.468Z,75.27
2023-02-22T01:43:41.771Z,74.33
2023-02-22T01:46:24.321Z,75.64
2023-02-22T01:48:59.023Z,75.30
2023-02-22T01:51:39.035Z,75.62
2023-02-22T01:54:16.387Z,75.89
2023-02-22T01:56:55.218Z,76.14
2023-02-22T01:59:26.887Z,76.03
2023-02-22T02:01:56.787Z,76.05
2023-02-22T02:04:28.781Z,76.39
2023-02-22T02:07:06.066Z,76.30
2023-02-22T02:09:42.596Z,76.13
2023-02-22T02:12:15.284Z,75.85
2023-02-22T02:14:46.379Z,76.62
2023-02-22T02:17:20.539Z,77.43
2023-02-22T02:20:04.882Z,79.25
2023-02-22T02:22:49.969Z,81.10
2023-02-22T02:26:04.115Z,82.58
2023-02-22T02:29:19.059Z,83.03
2023-02-22T02:32:25.074Z,82.44
2023-02-22T02:35:04.819Z,83.29
2023-02-22T02:37:44.108Z,84.56
2023-02-22T02:40:26.515Z,83.20
2023-02-22T02:43:04.252Z,81.16
2023-02-22T02:45:42.736Z,80.03
2023-02-22T02:48:20.454Z,81.97
2023-02-22T02:50:54.064Z,83.29
2023-02-22T02:53:28.957Z,80.88
2023-02-22T02:56:00.946Z,79.71
2023-02-22T02:58:32.451Z,78.99
2023-02-22T03:01:06.620Z,78.37
2023-02-22T03:03:59.072Z,78.26
2023-02-22T03:06:49.461Z,78.86
2023-02-22T03:09:34.540Z,78.24
2023-02-22T03:12:20.754Z,77.85
2023-02-22T03:15:08.923Z,78.58
2023-02-22T03:17:49.437Z,77.71
2023-02-22T03:20:32.917Z,77.86
2023-02-22T03:23:16.666Z,76.96
2023-02-22T03:25:53.165Z,77.23
2023-02-22T03:28:29.206Z,77.03
2023-02-22T03:31:03.651Z,77.10
2023-02-22T03:33:42.900Z,77.47
2023-02-22T03:36:21.865Z,77.55
2023-02-22T03:38:56.667Z,77.74
2023-02-22T03:41:29.573Z,78.17
2023-02-22T03:44:09.452Z,78.61
2023-02-22T03:46:43.698Z,78.25
2023-02-22T03:49:20.658Z,78.20
2023-02-22T03:51:53.908Z,77.86
2023-02-22T03:54:28.813Z,77.26
2023-02-22T03:57:06.352Z,77.37
2023-02-22T03:59:40.850Z,77.78
2023-02-22T04:02:11.003Z,78.96
2023-02-22T04:04:41.188Z,77.82
2023-02-22T04:07:13.874Z,77.32
2023-02-22T04:09:43.804Z,77.64
2023-02-22T04:12:14.360Z,77.15
2023-02-22T04:14:56.887Z,77.14
2023-02-22T04:17:27.178Z,76.29
2023-02-22T04:19:57.102Z,76.04
2023-02-22T04:22:32.588Z,77.00
2023-02-22T04:25:02.535Z,76.65
2023-02-22T04:27:32.385Z,76.54
2023-02-22T04:30:03.057Z,78.09
2023-02-22T04:32:35.006Z,80.35
2023-02-22T04:35:05.772Z,80.23
2023-02-22T04:37:39.579Z,79.86
2023-02-22T04:40:12.076Z,80.05
2023-02-22T04:42:43.667Z,80.26
2023-02-22T04:45:14.875Z,81.58
2023-02-22T04:47:45.287Z,81.95
2023-02-22T04:50:17.035Z,83.18
2023-02-22T04:52:49.699Z,82.09
2023-02-22T04:55:20.287Z,80.33
2023-02-22T04:57:50.462Z,79.51
2023-02-22T05:00:22.608Z,79.38
2023-02-22T05:02:56.266Z,79.88
2023-02-22T05:05:26.516Z,79.22
2023-02-22T05:07:58.954Z,78.15
2023-02-22T05:10:29.761Z,77.74
2023-02-22T05:13:00.165Z,77.70
2023-02-22T05:15:30.208Z,77.04
2023-02-22T05:18:00.932Z,78.31
2023-02-22T05:20:33.381Z,79.09
2023-02-22T05:23:07.948Z,80.10
2023-02-22T05:25:38.988Z,79.16
2023-02-22T05:28:14.606Z,81.22
2023-02-22T05:30:45.115Z,83.22
2023-02-22T05:33:16.595Z,82.97
2023-02-22T05:35:47.596Z,84.06
2023-02-22T05:38:20.182Z,84.11
2023-02-22T05:40:50.469Z,82.56
2023-02-22T05:43:21.361Z,82.33
2023-02-22T05:45:53.995Z,82.00
2023-02-22T05:48:24.061Z,81.24
2023-02-22T05:50:54.404Z,80.47
2023-02-22T05:53:28.251Z,80.05
2023-02-22T05:55:58.310Z,79.09
2023-02-22T05:58:29.466Z,78.81
2023-02-22T06:01:01.590Z,78.27
2023-02-22T06:03:33.414Z,78.37
2023-02-22T06:06:04.759Z,78.51
2023-02-22T06:08:38.017Z,78.38
2023-02-22T06:11:09.767Z,78.42
2023-02-22T06:13:41.084Z,78.48
2023-02-22T06:16:11.093Z,77.93
2023-02-22T06:18:41.760Z,78.25
2023-02-22T06:21:12.398Z,78.26
2023-02-22T06:23:45.459Z,77.73
2023-02-22T06:26:15.385Z,77.55
2023-02-22T06:28:46.148Z,77.46
2023-02-22T06:31:16.895Z,76.88
2023-02-22T06:33:48.336Z,76.42
2023-02-22T06:36:18.270Z,76.11
2023-02-22T06:38:52.712Z,72.70
2023-02-22T06:41:23.307Z,65.91
2023-02-22T06:43:53.798Z,65.05
2023-02-22T06:46:24.473Z,66.20
2023-02-22T06:48:55.009Z,68.11
2023-02-22T06:51:25.952Z,68.78
2023-02-22T06:53:59.621Z,68.26
2023-02-22T06:56:30.174Z,69.28
2023-02-22T06:59:02.799Z,68.02
2023-02-22T07:01:33.709Z,67.80
2023-02-22T07:04:03.960Z,66.87
2023-02-22T07:06:34.362Z,65.94
2023-02-22T07:09:07.636Z,62.47
2023-02-22T07:11:38.113Z,62.91
2023-02-22T07:14:09.437Z,62.62
2023-02-22T07:16:39.454Z,62.44
2023-02-22T07:19:09.521Z,62.45
2023-02-22T07:21:40.326Z,61.21
2023-02-22T07:24:12.953Z,59.47
2023-02-22T07:26:45.162Z,58.41
2023-02-22T07:29:15.085Z,54.56
2023-02-22T07:31:45.835Z,54.27
2023-02-22T07:34:15.913Z,52.26
2023-02-22T07:36:48.805Z,51.63
2023-02-22T07:39:21.949Z,50.88
2023-02-22T07:41:52.268Z,49.86
2023-02-22T07:44:28.201Z,49.61
2023-02-22T07:46:59.012Z,48.39
2023-02-22T07:49:28.857Z,47.45
2023-02-22T07:51:58.972Z,46.04
2023-02-22T07:54:31.448Z,46.42
2023-02-22T07:57:03.515Z,45.46
2023-02-22T07:59:34.416Z,44.88
2023-02-22T08:02:04.422Z,43.59
2023-02-22T08:04:35.033Z,42.73
2023-02-22T08:07:04.955Z,42.68
2023-02-22T08:09:38.399Z,40.83
2023-02-22T08:12:09.268Z,39.89
2023-02-22T08:14:40.047Z,38.93
2023-02-22T08:17:10.515Z,39.57
2023-02-22T08:19:40.394Z,37.92
2023-02-22T08:22:10.916Z,37.86
2023-02-22T08:24:43.461Z,36.32
2023-02-22T08:27:14.234Z,36.67
2023-02-22T08:29:44.240Z,36.89
2023-02-22T08:32:17.444Z,36.56
2023-02-22T08:34:47.760Z,36.15
2023-02-22T08:37:19.585Z,35.25
2023-02-22T08:39:52.568Z,34.65
2023-02-22T08:42:24.110Z,33.81
2023-02-22T08:44:53.975Z,35.94
2023-02-22T08:47:24.772Z,34.80
2023-02-22T08:49:55.094Z,34.24
2023-02-22T08:52:25.630Z,33.47
2023-02-22T08:54:58.501Z,33.38
2023-02-22T08:57:29.137Z,32.26
2023-02-22T08:59:59.623Z,31.78
2023-02-22T09:02:29.671Z,31.15
2023-02-22T09:05:00.460Z,30.11
2023-02-22T09:07:31.679Z,30.09
2023-02-22T09:10:04.960Z,29.77
2023-02-22T09:12:35.420Z,29.66
2023-02-22T09:15:05.389Z,29.06
2023-02-22T09:17:37.891Z,29.06
2023-02-22T09:20:10.770Z,28.25
2023-02-22T09:22:41.481Z,26.88
2023-02-22T09:25:17.079Z,26.05
2023-02-22T09:27:51.011Z,26.68
2023-02-22T09:30:26.782Z,26.09
2023-02-22T09:32:59.041Z,26.48
2023-02-22T09:35:30.081Z,26.89
2023-02-22T09:38:01.901Z,26.97
2023-02-22T09:40:45.403Z,26.51
2023-02-22T09:43:36.660Z,25.64
2023-02-22T09:46:26.046Z,26.24
2023-02-22T09:49:06.522Z,25.64
2023-02-22T09:51:45.385Z,23.68
2023-02-22T09:54:26.364Z,23.48
2023-02-22T09:57:05.623Z,24.38
2023-02-22T09:59:43.585Z,25.50
2023-02-22T10:02:28.446Z,25.35
2023-02-22T10:05:07.714Z,24.09
2023-02-22T10:07:46.998Z,21.90
2023-02-22T10:10:21.030Z,21.55
2023-02-22T10:13:09.757Z,23.43
2023-02-22T10:15:51.892Z,21.41
2023-02-22T10:19:08.467Z,20.60
2023-02-22T10:21:55.087Z,24.77
2023-02-22T10:24:41.081Z,26.41
2023-02-22T10:27:22.664Z,25.31
2023-02-22T10:30:12.669Z,24.16
2023-02-22T10:32:55.662Z,24.67
2023-02-22T10:35:27.991Z,24.30
2023-02-22T10:38:07.484Z,24.25
2023-02-22T10:40:46.945Z,23.87
2023-02-22T10:43:16.873Z,24.11
2023-02-22T10:46:04.398Z,24.12
2023-02-22T10:48:40.135Z,24.05
2023-02-22T10:51:13.864Z,23.37
2023-02-22T10:53:44.706Z,23.58
2023-02-22T10:56:25.952Z,23.38
2023-02-22T10:59:02.527Z,23.12
2023-02-22T11:01:42.652Z,23.29
2023-02-22T11:04:18.865Z,23.99
2023-02-22T11:06:51.308Z,23.99
2023-02-22T11:09:25.064Z,24.16
2023-02-22T11:12:12.325Z,24.45
2023-02-22T11:14:43.251Z,25.16
2023-02-22T11:17:27.538Z,25.31
2023-02-22T11:19:58.613Z,26.77
2023-02-22T11:22:31.183Z,27.37
2023-02-22T11:25:08.218Z,27.99
2023-02-22T11:27:44.053Z,28.40
2023-02-22T11:30:31.869Z,28.40
2023-02-22T11:33:24.203Z,29.45
2023-02-22T11:35:58.317Z,29.62
2023-02-22T11:38:30.987Z,29.41
2023-02-22T11:41:19.781Z,30.42
2023-02-22T11:43:55.036Z,30.77
2023-02-22T11:46:29.226Z,29.76
2023-02-22T11:49:07.220Z,30.34
2023-02-22T11:51:52.631Z,30.25
2023-02-22T11:54:58.987Z,30.51
2023-02-22T11:57:49.455Z,30.31
2023-02-22T12:00:29.387Z,31.25
2023-02-22T12:03:23.733Z,30.01
2023-02-22T12:06:14.996Z,30.93
2023-02-22T12:09:00.364Z,30.08
2023-02-22T12:11:40.715Z,31.18
2023-02-22T12:14:23.343Z,31.34
2023-02-22T12:17:20.887Z,32.14
2023-02-22T12:19:56.034Z,32.35
2023-02-22T12:22:33.577Z,32.11
2023-02-22T12:25:12.740Z,30.79
2023-02-22T12:27:49.519Z,30.69
2023-02-22T12:30:29.370Z,32.61
2023-02-22T12:33:06.361Z,32.92
2023-02-22T12:35:40.340Z,32.84
2023-02-22T12:38:23.126Z,32.74
2023-02-22T12:41:04.499Z,32.93
2023-02-22T12:43:41.838Z,31.45
2023-02-22T12:46:19.706Z,32.31
2023-02-22T12:48:57.229Z,31.90
2023-02-22T12:51:35.596Z,32.13
2023-02-22T12:54:19.534Z,32.33
2023-02-22T12:56:58.754Z,33.18
2023-02-22T12:59:36.927Z,33.22
2023-02-22T13:02:18.908Z,32.21
2023-02-22T13:04:49.417Z,32.69
2023-02-22T13:07:38.766Z,32.80
2023-02-22T13:10:34.783Z,32.71
2023-02-22T13:13:18.322Z,32.75
2023-02-22T13:16:01.130Z,33.48
2023-02-22T13:18:39.371Z,33.04
2023-02-22T13:21:23.167Z,33.01
2023-02-22T13:24:05.503Z,33.55
2023-02-22T13:26:48.485Z,34.04
2023-02-22T13:29:28.587Z,34.02
2023-02-22T13:32:17.088Z,33.89
2023-02-22T13:35:09.236Z,34.49
2023-02-22T13:38:04.850Z,34.76
2023-02-22T13:41:07.940Z,34.74
2023-02-22T13:44:11.448Z,34.86
2023-02-22T13:47:26.665Z,35.23
2023-02-22T13:50:23.582Z,35.20
2023-02-22T13:52:58.147Z,35.24
2023-02-22T13:55:35.414Z,36.35
2023-02-22T13:58:08.968Z,36.01
2023-02-22T14:00:58.488Z,35.42
2023-02-22T14:03:41.502Z,36.56
2023-02-22T14:06:36.063Z,35.76
2023-02-22T14:09:11.259Z,35.67
2023-02-22T14:11:54.360Z,36.31
2023-02-22T14:14:25.367Z,36.41
2023-02-22T14:17:31.774Z,36.32
2023-02-22T14:20:22.401Z,37.33
2023-02-22T14:22:54.879Z,36.74
2023-02-22T14:25:42.643Z,36.78
2023-02-22T14:28:39.332Z,36.89
2023-02-22T14:31:34.450Z,37.35
2023-02-22T14:34:10.537Z,37.24
2023-02-22T14:37:01.130Z,37.34
2023-02-22T14:39:39.221Z,37.88
2023-02-22T14:42:18.228Z,37.12
2023-02-22T14:44:59.778Z,36.91
2023-02-22T14:47:44.025Z,37.43
2023-02-22T14:50:23.820Z,37.81
2023-02-22T14:53:07.476Z,37.78
2023-02-22T14:55:46.381Z,38.23
2023-02-22T14:58:22.553Z,37.66
2023-02-22T15:00:56.922Z,37.81
2023-02-22T15:03:37.820Z,38.04
2023-02-22T15:06:10.269Z,37.35
2023-02-22T15:08:41.830Z,37.07
2023-02-22T15:11:23.589Z,36.46
2023-02-22T15:13:55.480Z,37.20
2023-02-22T15:16:31.342Z,36.75
2023-02-22T15:19:09.555Z,37.92
2023-02-22T15:21:50.169Z,38.52
2023-02-22T15:24:26.814Z,39.16
2023-02-22T15:27:02.535Z,39.51
2023-02-22T15:29:39.076Z,40.31
2023-02-22T15:32:23.842Z,41.03
2023-02-22T15:34:57.343Z,41.49
2023-02-22T15:37:29.345Z,42.16
2023-02-22T15:40:14.761Z,43.12
2023-02-22T15:42:50.485Z,43.52
2023-02-22T15:45:25.276Z,43.72
2023-02-22T15:47:58.677Z,43.61
2023-02-22T15:50:34.038Z,43.74
2023-02-22T15:53:07.190Z,43.96
2023-02-22T15:55:40.749Z,44.17
2023-02-22T15:58:15.014Z,43.91
2023-02-22T16:00:47.232Z,43.17
2023-02-22T16:03:23.568Z,42.97
2023-02-22T16:05:59.452Z,43.40
2023-02-22T16:08:54.377Z,43.22
2023-02-22T16:11:31.121Z,43.46
2023-02-22T16:14:05.640Z,44.24
2023-02-22T16:16:41.810Z,44.41
2023-02-22T16:19:33.239Z,44.16
2023-02-22T16:22:14.207Z,44.85
2023-02-22T16:24:52.191Z,45.18
2023-02-22T16:27:25.053Z,45.47
2023-02-22T16:30:23.201Z,45.63
2023-02-22T16:32:56.013Z,46.00
2023-02-22T16:35:29.024Z,46.70
2023-02-22T16:38:04.871Z,46.48
2023-02-22T16:40:38.650Z,46.90
2023-02-22T16:43:11.723Z,47.40
2023-02-22T16:45:42.704Z,47.64
2023-02-22T16:48:19.823Z,48.02
2023-02-22T16:50:51.474Z,48.24
2023-02-22T16:53:27.242Z,48.37
2023-02-22T16:56:03.628Z,48.45
2023-02-22T16:58:38.663Z,48.21
2023-02-22T17:01:10.073Z,49.10
2023-02-22T17:03:39.987Z,49.32
2023-02-22T17:06:11.892Z,49.23
2023-02-22T17:08:45.688Z,49.58
2023-02-22T17:11:18.192Z,49.65
2023-02-22T17:13:51.914Z,49.85
2023-02-22T17:16:22.123Z,50.42
2023-02-22T17:18:53.265Z,50.47
2023-02-22T17:21:23.186Z,50.86
2023-02-22T17:23:55.587Z,51.12
2023-02-22T17:26:26.296Z,51.37
2023-02-22T17:28:56.851Z,51.44
2023-02-22T17:31:31.099Z,51.59
2023-02-22T17:34:04.614Z,52.06
2023-02-22T17:36:36.898Z,52.21
2023-02-22T17:39:10.699Z,52.64
2023-02-22T17:41:41.081Z,52.88
2023-02-22T17:44:11.017Z,52.84
2023-02-22T17:46:43.225Z,53.37
2023-02-22T17:49:13.945Z,53.57
2023-02-22T17:51:49.448Z,53.92
2023-02-22T17:54:23.118Z,54.12
2023-02-22T17:56:53.291Z,54.51
2023-02-22T17:59:23.290Z,54.89
2023-02-22T18:01:53.829Z,54.74
2023-02-22T18:04:23.787Z,55.44
2023-02-22T18:06:53.614Z,55.56
2023-02-22T18:09:26.855Z,55.34
2023-02-22T18:11:56.788Z,55.38
2023-02-22T18:14:27.204Z,55.73
2023-02-22T18:16:57.154Z,56.35
2023-02-22T18:19:29.223Z,56.53
2023-02-22T18:22:00.337Z,56.81
2023-02-22T18:24:34.851Z,57.25
2023-02-22T18:27:07.924Z,57.46
2023-02-22T18:29:37.978Z,57.55
2023-02-22T18:32:13.335Z,57.71
2023-02-22T18:34:43.371Z,57.60
2023-02-22T18:37:13.222Z,57.93
2023-02-22T18:39:46.177Z,58.37
2023-02-22T18:42:17.898Z,58.54
2023-02-22T18:44:47.895Z,58.63
2023-02-22T18:47:18.183Z,58.92
2023-02-22T18:49:49.285Z,59.30
2023-02-22T18:52:19.158Z,59.80
2023-02-22T18:54:53.291Z,59.86
2023-02-22T18:57:24.690Z,59.87
2023-02-22T18:59:55.049Z,59.86
2023-02-22T19:02:25.741Z,59.75
2023-02-22T19:04:55.658Z,59.99
2023-02-22T19:07:26.342Z,60.05
2023-02-22T19:09:59.279Z,60.53
2023-02-22T19:12:31.387Z,60.74
2023-02-22T19:15:02.012Z,60.63
2023-02-22T19:17:36.852Z,61.05
2023-02-22T19:20:10.133Z,61.16
2023-02-22T19:22:40.352Z,61.33
2023-02-22T19:25:12.843Z,61.49
2023-02-22T19:27:44.556Z,61.97
2023-02-22T19:30:17.225Z,61.85
2023-02-22T19:32:47.647Z,62.02
2023-02-22T19:35:26.406Z,61.99
2023-02-22T19:37:58.206Z,62.25
2023-02-22T19:40:30.919Z,62.54
2023-02-22T19:43:00.748Z,62.84
2023-02-22T19:45:31.223Z,63.07
2023-02-22T19:48:01.085Z,62.92
2023-02-22T19:50:30.998Z,63.09
2023-02-22T19:53:00.852Z,63.51
2023-02-22T19:55:33.497Z,63.42
2023-02-22T19:58:03.348Z,63.60
2023-02-22T20:00:35.585Z,63.88
2023-02-22T20:03:09.522Z,63.98
2023-02-22T20:05:42.695Z,63.99
2023-02-22T20:08:12.545Z,64.06
2023-02-22T20:10:46.546Z,64.18
2023-02-22T20:13:17.197Z,64.01
2023-02-22T20:15:51.127Z,64.50
2023-02-22T20:18:22.996Z,64.53
2023-02-22T20:20:53.301Z,64.60
2023-02-22T20:23:23.623Z,64.61
2023-02-22T20:25:59.814Z,64.69
2023-02-22T20:28:30.076Z,64.45
2023-02-22T20:31:00.393Z,64.69
2023-02-22T20:33:30.476Z,64.76
2023-02-22T20:36:01.224Z,64.87
2023-02-22T20:38:31.097Z,65.00
2023-02-22T20:41:04.123Z,64.90
2023-02-22T20:43:34.468Z,65.21
2023-02-22T20:46:05.942Z,65.37
2023-02-22T20:48:37.742Z,65.51
2023-02-22T20:51:09.172Z,65.64
2023-02-22T20:53:39.831Z,65.86
2023-02-22T20:56:15.064Z,65.81
2023-02-22T20:58:45.855Z,65.94
2023-02-22T21:01:19.768Z,65.96
2023-02-22T21:03:49.767Z,66.27
2023-02-22T21:06:22.751Z,66.54
2023-02-22T21:08:56.174Z,66.51
2023-02-22T21:11:32.846Z,66.66
2023-02-22T21:14:04.426Z,66.66
2023-02-22T21:16:37.114Z,66.59
2023-02-22T21:19:09.796Z,66.82
2023-02-22T21:21:39.782Z,66.86
2023-02-22T21:24:10.675Z,66.86
2023-02-22T21:26:43.247Z,66.88
2023-02-22T21:29:13.064Z,66.51
2023-02-22T21:31:43.142Z,66.60
2023-02-22T21:34:17.554Z,66.43
2023-02-22T21:36:48.237Z,66.62
2023-02-22T21:39:20.877Z,66.72
2023-02-22T21:41:55.092Z,66.68
2023-02-22T21:44:25.097Z,67.02
2023-02-22T21:46:55.564Z,66.82
2023-02-22T21:49:26.345Z,67.20
2023-02-22T21:51:56.622Z,67.24
2023-02-22T21:54:28.074Z,67.26
2023-02-22T21:57:01.410Z,67.28
2023-02-22T21:59:31.353Z,67.07
2023-02-22T22:02:01.299Z,67.65
2023-02-22T22:04:35.064Z,67.59
2023-02-22T22:07:05.522Z,67.63
2023-02-22T22:09:38.106Z,67.93
2023-02-22T22:12:14.204Z,68.19
2023-02-22T22:14:44.875Z,68.34
2023-02-22T22:17:15.591Z,68.40
2023-02-22T22:19:48.926Z,68.22
2023-02-22T22:22:20.746Z,68.39
2023-02-22T22:24:50.686Z,68.45
2023-02-22T22:27:23.767Z,68.50
2023-02-22T22:29:57.261Z,68.56
2023-02-22T22:32:27.653Z,68.64
2023-02-22T22:34:59.363Z,68.78
2023-02-22T22:37:31.102Z,69.23
2023-02-22T22:40:01.319Z,69.15
2023-02-22T22:42:33.692Z,69.34
2023-02-22T22:45:03.941Z,69.43
2023-02-22T22:47:33.832Z,69.68
2023-02-22T22:50:03.741Z,69.73
2023-02-22T22:52:35.341Z,69.93
2023-02-22T22:55:07.667Z,70.27
2023-02-22T22:57:41.162Z,70.50
2023-02-22T23:00:30.699Z,70.46
2023-02-22T23:03:00.792Z,70.88
2023-02-22T23:05:31.400Z,71.22
2023-02-22T23:08:04.862Z,71.12
2023-02-22T23:10:39.672Z,71.13
2023-02-22T23:13:15.718Z,71.47
2023-02-22T23:15:48.091Z,71.85
2023-02-22T23:18:20.519Z,72.27
2023-02-22T23:20:55.238Z,72.25
2023-02-22T23:23:28.220Z,72.21
2023-02-22T23:26:11.591Z,72.42
2023-02-22T23:28:45.254Z,72.85
2023-02-22T23:31:18.107Z,73.03
2023-02-22T23:33:51.049Z,73.21
2023-02-22T23:36:22.293Z,73.29
2023-02-22T23:38:52.125Z,73.35
2023-02-22T23:41:25.121Z,73.32
2023-02-22T23:43:57.946Z,73.48
2023-02-22T23:46:32.840Z,73.59
2023-02-22T23:49:05.432Z,73.89
2023-02-22T23:51:39.592Z,73.99
2023-02-22T23:54:12.421Z,74.00
2023-02-22T23:56:53.656Z,73.95
2023-02-22T23:59:28.058Z,74.25
